Terminal Aerodrome Forecast
Issued by NWS

Home | Current Version | Previous Version | Graphics & Text | Print | Product List | Glossary On
Versions: 1 2 3 4 5 6 7 8 9 10 11 12 13 14 15 16 17 18 19 20 21 22 23 24
445
FTUS41 KCLE 292338
TAFFDY
TAF
KFDY 292338Z 3000/3024 06012G20KT P6SM BKN120 OVC200
     FM300900 07012KT P6SM VCSH SCT025 OVC050
     FM301300 09015KT 4SM -RA SCT012 OVC025
      TEMPO 3016/3020 1SM -RA BR OVC012
     FM302200 12010KT 5SM BR VCSH OVC015=

USA.gov is the U.S. government's official web portal to all federal, state and local government web resources and services.